sensor_id;sensor_type;location;lat;lon;timestamp;P1;durP1;ratioP1;P2;durP2;ratioP2
47984;SDS011;33753;52.912;-7.342;2023-04-16T00:00:22;3.45;;;1.20;;
47984;SDS011;33753;52.912;-7.342;2023-04-16T00:02:50;3.88;;;1.30;;
47984;SDS011;33753;52.912;-7.342;2023-04-16T00:05:19;3.70;;;1.20;;
47984;SDS011;33753;52.912;-7.342;2023-04-16T00:07:47;4.07;;;1.35;;
47984;SDS011;33753;52.912;-7.342;2023-04-16T00:10:17;4.78;;;1.23;;
47984;SDS011;33753;52.912;-7.342;2023-04-16T00:12:47;5.47;;;2.10;;
47984;SDS011;33753;52.912;-7.342;2023-04-16T00:15:15;4.13;;;1.25;;
47984;SDS011;33753;52.912;-7.342;2023-04-16T00:17:44;4.32;;;1.67;;
47984;SDS011;33753;52.912;-7.342;2023-04-16T00:20:12;3.58;;;1.98;;
47984;SDS011;33753;52.912;-7.342;2023-04-16T00:22:41;5.57;;;1.65;;
47984;SDS011;33753;52.912;-7.342;2023-04-16T00:27:37;2.67;;;1.27;;
47984;SDS011;33753;52.912;-7.342;2023-04-16T00:30:08;3.42;;;1.35;;
47984;SDS011;33753;52.912;-7.342;2023-04-16T00:32:37;4.10;;;1.60;;
47984;SDS011;33753;52.912;-7.342;2023-04-16T00:35:07;4.35;;;1.75;;
47984;SDS011;33753;52.912;-7.342;2023-04-16T00:37:36;4.18;;;1.80;;
47984;SDS011;33753;52.912;-7.342;2023-04-16T00:40:10;2.28;;;1.15;;
47984;SDS011;33753;52.912;-7.342;2023-04-16T00:42:39;2.75;;;1.33;;
47984;SDS011;33753;52.912;-7.342;2023-04-16T00:45:10;5.07;;;1.48;;
47984;SDS011;33753;52.912;-7.342;2023-04-16T00:47:38;3.22;;;1.17;;
47984;SDS011;33753;52.912;-7.342;2023-04-16T00:50:07;4.22;;;1.08;;
47984;SDS011;33753;52.912;-7.342;2023-04-16T00:52:37;4.13;;;1.17;;
47984;SDS011;33753;52.912;-7.342;2023-04-16T00:55:06;3.85;;;1.02;;
47984;SDS011;33753;52.912;-7.342;2023-04-16T00:57:39;2.58;;;1.05;;
47984;SDS011;33753;52.912;-7.342;2023-04-16T01:00:08;2.65;;;1.02;;
47984;SDS011;33753;52.912;-7.342;2023-04-16T01:02:39;2.22;;;0.90;;
47984;SDS011;33753;52.912;-7.342;2023-04-16T01:05:08;3.38;;;1.40;;
47984;SDS011;33753;52.912;-7.342;2023-04-16T01:07:37;1.98;;;1.02;;
47984;SDS011;33753;52.912;-7.342;2023-04-16T01:10:06;3.42;;;1.38;;
47984;SDS011;33753;52.912;-7.342;2023-04-16T01:12:34;2.38;;;0.90;;
47984;SDS011;33753;52.912;-7.342;2023-04-16T01:15:03;1.92;;;0.80;;
47984;SDS011;33753;52.912;-7.342;2023-04-16T01:17:34;3.05;;;1.05;;
47984;SDS011;33753;52.912;-7.342;2023-04-16T01:20:09;2.60;;;1.08;;
47984;SDS011;33753;52.912;-7.342;2023-04-16T01:22:39;3.53;;;1.30;;
47984;SDS011;33753;52.912;-7.342;2023-04-16T01:25:12;3.67;;;1.00;;
47984;SDS011;33753;52.912;-7.342;2023-04-16T01:27:41;2.10;;;0.98;;
47984;SDS011;33753;52.912;-7.342;2023-04-16T01:30:09;1.83;;;1.00;;
47984;SDS011;33753;52.912;-7.342;2023-04-16T01:32:49;2.50;;;1.15;;
47984;SDS011;33753;52.912;-7.342;2023-04-16T01:35:17;2.22;;;1.00;;
47984;SDS011;33753;52.912;-7.342;2023-04-16T01:40:16;1.95;;;0.95;;
47984;SDS011;33753;52.912;-7.342;2023-04-16T01:42:45;4.57;;;1.00;;
47984;SDS011;33753;52.912;-7.342;2023-04-16T01:52:38;2.33;;;0.70;;
47984;SDS011;33753;52.912;-7.342;2023-04-16T01:55:08;1.88;;;0.80;;
47984;SDS011;33753;52.912;-7.342;2023-04-16T01:57:37;2.67;;;0.60;;
47984;SDS011;33753;52.912;-7.342;2023-04-16T02:00:06;1.90;;;0.70;;
47984;SDS011;33753;52.912;-7.342;2023-04-16T02:02:43;2.03;;;0.73;;
47984;SDS011;33753;52.912;-7.342;2023-04-16T02:05:19;2.63;;;0.80;;
47984;SDS011;33753;52.912;-7.342;2023-04-16T02:07:47;3.40;;;1.05;;
47984;SDS011;33753;52.912;-7.342;2023-04-16T02:12:46;2.00;;;0.95;;
47984;SDS011;33753;52.912;-7.342;2023-04-16T02:17:43;3.08;;;1.00;;
47984;SDS011;33753;52.912;-7.342;2023-04-16T02:20:14;4.40;;;0.93;;
47984;SDS011;33753;52.912;-7.342;2023-04-16T02:22:52;4.20;;;1.17;;
47984;SDS011;33753;52.912;-7.342;2023-04-16T02:25:24;2.95;;;1.10;;
47984;SDS011;33753;52.912;-7.342;2023-04-16T02:27:54;2.60;;;0.93;;
47984;SDS011;33753;52.912;-7.342;2023-04-16T02:30:30;2.72;;;0.95;;
47984;SDS011;33753;52.912;-7.342;2023-04-16T02:33:01;4.07;;;1.95;;
47984;SDS011;33753;52.912;-7.342;2023-04-16T02:35:31;3.25;;;1.23;;
47984;SDS011;33753;52.912;-7.342;2023-04-16T02:38:00;3.70;;;1.10;;
47984;SDS011;33753;52.912;-7.342;2023-04-16T02:40:32;4.18;;;1.45;;
47984;SDS011;33753;52.912;-7.342;2023-04-16T02:43:00;1.77;;;1.08;;
47984;SDS011;33753;52.912;-7.342;2023-04-16T02:45:29;6.05;;;1.55;;
47984;SDS011;33753;52.912;-7.342;2023-04-16T02:47:58;3.75;;;1.77;;
47984;SDS011;33753;52.912;-7.342;2023-04-16T02:50:27;3.15;;;1.42;;
47984;SDS011;33753;52.912;-7.342;2023-04-16T02:52:55;4.40;;;1.50;;
47984;SDS011;33753;52.912;-7.342;2023-04-16T02:55:24;4.60;;;1.90;;
47984;SDS011;33753;52.912;-7.342;2023-04-16T03:00:22;5.13;;;2.10;;
47984;SDS011;33753;52.912;-7.342;2023-04-16T03:02:50;6.57;;;2.17;;
47984;SDS011;33753;52.912;-7.342;2023-04-16T03:05:19;4.93;;;1.55;;
47984;SDS011;33753;52.912;-7.342;2023-04-16T03:07:48;4.63;;;2.10;;
47984;SDS011;33753;52.912;-7.342;2023-04-16T03:10:22;3.28;;;2.42;;
47984;SDS011;33753;52.912;-7.342;2023-04-16T03:12:51;3.85;;;1.90;;
47984;SDS011;33753;52.912;-7.342;2023-04-16T03:15:21;3.60;;;1.85;;
47984;SDS011;33753;52.912;-7.342;2023-04-16T03:17:49;5.45;;;2.20;;
47984;SDS011;33753;52.912;-7.342;2023-04-16T03:20:18;4.20;;;2.05;;
47984;SDS011;33753;52.912;-7.342;2023-04-16T03:22:47;7.63;;;1.90;;
47984;SDS011;33753;52.912;-7.342;2023-04-16T03:25:18;4.25;;;1.63;;
47984;SDS011;33753;52.912;-7.342;2023-04-16T03:27:46;5.72;;;2.00;;
47984;SDS011;33753;52.912;-7.342;2023-04-16T03:30:15;5.03;;;1.90;;
47984;SDS011;33753;52.912;-7.342;2023-04-16T03:32:45;3.83;;;1.95;;
47984;SDS011;33753;52.912;-7.342;2023-04-16T03:35:14;8.20;;;2.75;;
47984;SDS011;33753;52.912;-7.342;2023-04-16T03:37:43;4.28;;;2.25;;
47984;SDS011;33753;52.912;-7.342;2023-04-16T03:40:12;4.32;;;2.03;;
47984;SDS011;33753;52.912;-7.342;2023-04-16T03:42:41;4.90;;;2.17;;
47984;SDS011;33753;52.912;-7.342;2023-04-16T03:45:10;4.13;;;2.35;;
47984;SDS011;33753;52.912;-7.342;2023-04-16T03:47:38;4.20;;;2.30;;
47984;SDS011;33753;52.912;-7.342;2023-04-16T03:50:09;3.78;;;2.35;;
47984;SDS011;33753;52.912;-7.342;2023-04-16T03:52:39;5.07;;;2.30;;
47984;SDS011;33753;52.912;-7.342;2023-04-16T03:55:08;3.55;;;2.30;;
47984;SDS011;33753;52.912;-7.342;2023-04-16T04:00:09;3.42;;;2.08;;
47984;SDS011;33753;52.912;-7.342;2023-04-16T04:02:54;4.55;;;2.60;;
47984;SDS011;33753;52.912;-7.342;2023-04-16T04:05:25;4.75;;;2.20;;
47984;SDS011;33753;52.912;-7.342;2023-04-16T04:07:53;4.85;;;2.72;;
47984;SDS011;33753;52.912;-7.342;2023-04-16T04:10:21;6.10;;;3.50;;
47984;SDS011;33753;52.912;-7.342;2023-04-16T04:15:18;5.13;;;2.50;;
47984;SDS011;33753;52.912;-7.342;2023-04-16T04:17:47;5.90;;;3.20;;
47984;SDS011;33753;52.912;-7.342;2023-04-16T04:20:15;6.93;;;3.00;;
47984;SDS011;33753;52.912;-7.342;2023-04-16T04:22:47;5.68;;;3.40;;
47984;SDS011;33753;52.912;-7.342;2023-04-16T04:25:19;10.77;;;3.10;;
47984;SDS011;33753;52.912;-7.342;2023-04-16T04:35:14;6.53;;;2.70;;
47984;SDS011;33753;52.912;-7.342;2023-04-16T04:40:17;6.68;;;2.88;;
47984;SDS011;33753;52.912;-7.342;2023-04-16T04:42:45;6.35;;;3.95;;
47984;SDS011;33753;52.912;-7.342;2023-04-16T04:45:14;9.32;;;4.53;;
47984;SDS011;33753;52.912;-7.342;2023-04-16T04:47:43;6.47;;;4.57;;
47984;SDS011;33753;52.912;-7.342;2023-04-16T04:50:11;9.30;;;4.75;;
47984;SDS011;33753;52.912;-7.342;2023-04-16T04:55:08;10.93;;;5.75;;
47984;SDS011;33753;52.912;-7.342;2023-04-16T04:57:38;8.20;;;4.47;;
47984;SDS011;33753;52.912;-7.342;2023-04-16T05:00:07;6.30;;;4.53;;
47984;SDS011;33753;52.912;-7.342;2023-04-16T05:02:42;6.65;;;4.80;;
47984;SDS011;33753;52.912;-7.342;2023-04-16T05:07:39;6.80;;;4.40;;
47984;SDS011;33753;52.912;-7.342;2023-04-16T05:10:07;7.30;;;4.30;;
47984;SDS011;33753;52.912;-7.342;2023-04-16T05:12:36;8.05;;;5.00;;
47984;SDS011;33753;52.912;-7.342;2023-04-16T05:15:07;6.63;;;3.97;;
47984;SDS011;33753;52.912;-7.342;2023-04-16T05:17:36;8.57;;;4.45;;
47984;SDS011;33753;52.912;-7.342;2023-04-16T05:20:05;6.30;;;3.95;;
47984;SDS011;33753;52.912;-7.342;2023-04-16T05:22:35;6.00;;;4.20;;
47984;SDS011;33753;52.912;-7.342;2023-04-16T05:25:04;7.47;;;4.15;;
47984;SDS011;33753;52.912;-7.342;2023-04-16T05:27:33;8.88;;;4.45;;
47984;SDS011;33753;52.912;-7.342;2023-04-16T05:30:04;6.93;;;4.25;;
47984;SDS011;33753;52.912;-7.342;2023-04-16T05:32:33;8.00;;;3.75;;
47984;SDS011;33753;52.912;-7.342;2023-04-16T05:35:02;5.70;;;4.15;;
47984;SDS011;33753;52.912;-7.342;2023-04-16T05:37:31;6.00;;;4.32;;
47984;SDS011;33753;52.912;-7.342;2023-04-16T05:39:59;7.20;;;3.75;;
47984;SDS011;33753;52.912;-7.342;2023-04-16T05:42:27;6.15;;;3.92;;
47984;SDS011;33753;52.912;-7.342;2023-04-16T05:44:56;8.10;;;3.17;;
47984;SDS011;33753;52.912;-7.342;2023-04-16T05:47:26;7.28;;;3.53;;
47984;SDS011;33753;52.912;-7.342;2023-04-16T05:49:54;6.45;;;4.07;;
47984;SDS011;33753;52.912;-7.342;2023-04-16T05:52:22;6.88;;;4.43;;
47984;SDS011;33753;52.912;-7.342;2023-04-16T06:02:15;4.32;;;2.95;;
47984;SDS011;33753;52.912;-7.342;2023-04-16T06:04:46;5.95;;;3.55;;
47984;SDS011;33753;52.912;-7.342;2023-04-16T06:07:15;9.43;;;4.20;;
47984;SDS011;33753;52.912;-7.342;2023-04-16T06:09:44;5.00;;;3.35;;
47984;SDS011;33753;52.912;-7.342;2023-04-16T06:14:40;4.78;;;3.00;;
47984;SDS011;33753;52.912;-7.342;2023-04-16T06:17:08;6.78;;;3.90;;
47984;SDS011;33753;52.912;-7.342;2023-04-16T06:19:38;6.30;;;3.80;;
47984;SDS011;33753;52.912;-7.342;2023-04-16T06:24:37;8.00;;;3.20;;
47984;SDS011;33753;52.912;-7.342;2023-04-16T06:27:05;4.95;;;3.40;;
47984;SDS011;33753;52.912;-7.342;2023-04-16T06:29:33;6.20;;;3.80;;
47984;SDS011;33753;52.912;-7.342;2023-04-16T06:32:07;6.53;;;3.78;;
47984;SDS011;33753;52.912;-7.342;2023-04-16T06:34:36;5.03;;;3.45;;
47984;SDS011;33753;52.912;-7.342;2023-04-16T06:37:05;6.72;;;3.67;;
47984;SDS011;33753;52.912;-7.342;2023-04-16T06:39:37;5.78;;;3.55;;
47984;SDS011;33753;52.912;-7.342;2023-04-16T06:42:06;8.43;;;3.97;;
47984;SDS011;33753;52.912;-7.342;2023-04-16T06:47:03;5.95;;;3.35;;
47984;SDS011;33753;52.912;-7.342;2023-04-16T06:49:31;6.80;;;4.03;;
47984;SDS011;33753;52.912;-7.342;2023-04-16T06:52:00;5.30;;;3.60;;
47984;SDS011;33753;52.912;-7.342;2023-04-16T06:54:31;5.93;;;3.97;;
47984;SDS011;33753;52.912;-7.342;2023-04-16T06:57:01;6.90;;;4.03;;
47984;SDS011;33753;52.912;-7.342;2023-04-16T06:59:29;7.22;;;3.90;;
47984;SDS011;33753;52.912;-7.342;2023-04-16T07:06:54;6.80;;;3.88;;
47984;SDS011;33753;52.912;-7.342;2023-04-16T07:09:22;6.47;;;4.10;;
47984;SDS011;33753;52.912;-7.342;2023-04-16T07:11:52;5.28;;;3.20;;
47984;SDS011;33753;52.912;-7.342;2023-04-16T07:16:50;6.03;;;3.35;;
47984;SDS011;33753;52.912;-7.342;2023-04-16T07:19:19;9.00;;;4.15;;
47984;SDS011;33753;52.912;-7.342;2023-04-16T07:21:47;5.30;;;3.00;;
47984;SDS011;33753;52.912;-7.342;2023-04-16T07:24:16;6.93;;;3.28;;
47984;SDS011;33753;52.912;-7.342;2023-04-16T07:26:44;4.68;;;3.30;;
47984;SDS011;33753;52.912;-7.342;2023-04-16T07:29:12;5.75;;;3.22;;
47984;SDS011;33753;52.912;-7.342;2023-04-16T07:34:11;6.82;;;3.80;;
47984;SDS011;33753;52.912;-7.342;2023-04-16T07:36:39;6.85;;;3.67;;
47984;SDS011;33753;52.912;-7.342;2023-04-16T07:39:08;4.55;;;2.85;;
47984;SDS011;33753;52.912;-7.342;2023-04-16T07:41:38;8.20;;;2.67;;
47984;SDS011;33753;52.912;-7.342;2023-04-16T07:44:07;5.28;;;2.88;;
47984;SDS011;33753;52.912;-7.342;2023-04-16T07:46:36;5.45;;;2.50;;
47984;SDS011;33753;52.912;-7.342;2023-04-16T07:49:14;8.02;;;2.92;;
47984;SDS011;33753;52.912;-7.342;2023-04-16T07:51:43;6.63;;;3.17;;
47984;SDS011;33753;52.912;-7.342;2023-04-16T07:59:07;5.45;;;2.47;;
47984;SDS011;33753;52.912;-7.342;2023-04-16T08:01:49;5.70;;;2.40;;
47984;SDS011;33753;52.912;-7.342;2023-04-16T08:04:21;5.88;;;2.60;;
47984;SDS011;33753;52.912;-7.342;2023-04-16T08:06:52;6.10;;;2.83;;
47984;SDS011;33753;52.912;-7.342;2023-04-16T08:09:21;4.22;;;2.67;;
47984;SDS011;33753;52.912;-7.342;2023-04-16T08:11:50;4.18;;;2.40;;
47984;SDS011;33753;52.912;-7.342;2023-04-16T08:14:19;6.38;;;2.20;;
47984;SDS011;33753;52.912;-7.342;2023-04-16T08:16:47;4.47;;;2.30;;
47984;SDS011;33753;52.912;-7.342;2023-04-16T08:19:15;4.78;;;2.28;;
47984;SDS011;33753;52.912;-7.342;2023-04-16T08:21:45;6.20;;;2.67;;
47984;SDS011;33753;52.912;-7.342;2023-04-16T08:24:14;6.75;;;2.47;;
47984;SDS011;33753;52.912;-7.342;2023-04-16T08:26:42;6.05;;;2.75;;
47984;SDS011;33753;52.912;-7.342;2023-04-16T08:29:11;3.90;;;2.72;;
47984;SDS011;33753;52.912;-7.342;2023-04-16T08:31:39;4.50;;;2.35;;
47984;SDS011;33753;52.912;-7.342;2023-04-16T08:34:08;6.78;;;2.60;;
47984;SDS011;33753;52.912;-7.342;2023-04-16T08:36:38;5.80;;;2.85;;
47984;SDS011;33753;52.912;-7.342;2023-04-16T08:39:08;6.45;;;2.17;;
47984;SDS011;33753;52.912;-7.342;2023-04-16T08:41:37;5.32;;;2.08;;
47984;SDS011;33753;52.912;-7.342;2023-04-16T08:44:10;4.63;;;2.30;;
47984;SDS011;33753;52.912;-7.342;2023-04-16T08:46:46;4.25;;;1.95;;
47984;SDS011;33753;52.912;-7.342;2023-04-16T08:49:15;5.85;;;2.45;;
47984;SDS011;33753;52.912;-7.342;2023-04-16T08:51:51;4.40;;;2.53;;
47984;SDS011;33753;52.912;-7.342;2023-04-16T08:54:34;4.30;;;2.13;;
47984;SDS011;33753;52.912;-7.342;2023-04-16T08:57:10;7.25;;;2.83;;
47984;SDS011;33753;52.912;-7.342;2023-04-16T08:59:44;7.25;;;2.30;;
47984;SDS011;33753;52.912;-7.342;2023-04-16T09:02:13;5.40;;;2.47;;
47984;SDS011;33753;52.912;-7.342;2023-04-16T09:04:41;4.38;;;2.55;;
47984;SDS011;33753;52.912;-7.342;2023-04-16T09:07:11;3.47;;;1.90;;
47984;SDS011;33753;52.912;-7.342;2023-04-16T09:09:41;5.90;;;2.22;;
47984;SDS011;33753;52.912;-7.342;2023-04-16T09:12:12;5.57;;;1.85;;
47984;SDS011;33753;52.912;-7.342;2023-04-16T09:14:40;7.05;;;2.05;;
47984;SDS011;33753;52.912;-7.342;2023-04-16T09:17:09;5.70;;;1.95;;
47984;SDS011;33753;52.912;-7.342;2023-04-16T09:19:39;5.40;;;1.98;;
47984;SDS011;33753;52.912;-7.342;2023-04-16T09:22:08;3.45;;;1.40;;
47984;SDS011;33753;52.912;-7.342;2023-04-16T09:27:06;8.02;;;2.03;;
47984;SDS011;33753;52.912;-7.342;2023-04-16T09:29:35;6.05;;;1.80;;
47984;SDS011;33753;52.912;-7.342;2023-04-16T09:32:05;3.05;;;1.63;;
47984;SDS011;33753;52.912;-7.342;2023-04-16T09:34:52;5.30;;;2.40;;
47984;SDS011;33753;52.912;-7.342;2023-04-16T09:37:22;6.53;;;1.70;;
47984;SDS011;33753;52.912;-7.342;2023-04-16T09:39:52;3.92;;;1.80;;
47984;SDS011;33753;52.912;-7.342;2023-04-16T09:42:22;6.07;;;1.58;;
47984;SDS011;33753;52.912;-7.342;2023-04-16T09:44:53;4.50;;;1.85;;
47984;SDS011;33753;52.912;-7.342;2023-04-16T09:47:25;5.53;;;1.77;;
47984;SDS011;33753;52.912;-7.342;2023-04-16T09:50:06;5.30;;;1.52;;
47984;SDS011;33753;52.912;-7.342;2023-04-16T09:52:38;4.57;;;1.70;;
47984;SDS011;33753;52.912;-7.342;2023-04-16T09:55:07;6.15;;;1.50;;
47984;SDS011;33753;52.912;-7.342;2023-04-16T09:57:37;3.90;;;1.90;;
47984;SDS011;33753;52.912;-7.342;2023-04-16T10:00:06;4.00;;;1.50;;
47984;SDS011;33753;52.912;-7.342;2023-04-16T10:02:38;4.20;;;1.63;;
47984;SDS011;33753;52.912;-7.342;2023-04-16T10:05:08;3.17;;;1.60;;
47984;SDS011;33753;52.912;-7.342;2023-04-16T10:07:42;4.72;;;1.88;;
47984;SDS011;33753;52.912;-7.342;2023-04-16T10:10:11;3.25;;;1.52;;
47984;SDS011;33753;52.912;-7.342;2023-04-16T10:12:41;3.47;;;1.58;;
47984;SDS011;33753;52.912;-7.342;2023-04-16T10:15:10;3.55;;;1.92;;
47984;SDS011;33753;52.912;-7.342;2023-04-16T10:17:38;2.72;;;1.55;;
47984;SDS011;33753;52.912;-7.342;2023-04-16T10:20:07;5.35;;;2.08;;
47984;SDS011;33753;52.912;-7.342;2023-04-16T10:22:36;3.63;;;1.58;;
47984;SDS011;33753;52.912;-7.342;2023-04-16T10:27:34;3.95;;;1.60;;
47984;SDS011;33753;52.912;-7.342;2023-04-16T10:30:07;3.78;;;1.67;;
47984;SDS011;33753;52.912;-7.342;2023-04-16T10:32:38;5.40;;;1.92;;
47984;SDS011;33753;52.912;-7.342;2023-04-16T10:35:08;5.05;;;1.77;;
47984;SDS011;33753;52.912;-7.342;2023-04-16T10:37:36;5.63;;;1.83;;
47984;SDS011;33753;52.912;-7.342;2023-04-16T10:42:52;4.75;;;1.88;;
47984;SDS011;33753;52.912;-7.342;2023-04-16T10:45:26;4.70;;;2.00;;
47984;SDS011;33753;52.912;-7.342;2023-04-16T10:47:57;3.53;;;1.80;;
47984;SDS011;33753;52.912;-7.342;2023-04-16T10:50:32;6.68;;;1.73;;
47984;SDS011;33753;52.912;-7.342;2023-04-16T10:53:19;5.32;;;2.25;;
47984;SDS011;33753;52.912;-7.342;2023-04-16T10:58:49;6.63;;;2.38;;
47984;SDS011;33753;52.912;-7.342;2023-04-16T11:01:25;3.53;;;1.73;;
47984;SDS011;33753;52.912;-7.342;2023-04-16T11:03:57;6.20;;;1.90;;
47984;SDS011;33753;52.912;-7.342;2023-04-16T11:06:28;4.65;;;1.75;;
47984;SDS011;33753;52.912;-7.342;2023-04-16T11:08:57;4.55;;;1.63;;
47984;SDS011;33753;52.912;-7.342;2023-04-16T11:11:26;8.50;;;2.00;;
47984;SDS011;33753;52.912;-7.342;2023-04-16T11:14:04;5.50;;;2.28;;
47984;SDS011;33753;52.912;-7.342;2023-04-16T11:16:36;2.95;;;1.60;;
47984;SDS011;33753;52.912;-7.342;2023-04-16T11:19:07;5.28;;;1.77;;
47984;SDS011;33753;52.912;-7.342;2023-04-16T11:21:43;5.97;;;1.98;;
47984;SDS011;33753;52.912;-7.342;2023-04-16T11:24:12;3.03;;;1.77;;
47984;SDS011;33753;52.912;-7.342;2023-04-16T11:29:12;3.67;;;1.95;;
47984;SDS011;33753;52.912;-7.342;2023-04-16T11:31:44;3.25;;;1.90;;
47984;SDS011;33753;52.912;-7.342;2023-04-16T11:34:18;7.78;;;2.60;;
47984;SDS011;33753;52.912;-7.342;2023-04-16T11:36:47;2.90;;;1.77;;
47984;SDS011;33753;52.912;-7.342;2023-04-16T11:39:17;6.03;;;2.35;;
47984;SDS011;33753;52.912;-7.342;2023-04-16T11:41:46;7.78;;;2.10;;
47984;SDS011;33753;52.912;-7.342;2023-04-16T11:44:16;5.70;;;1.67;;
47984;SDS011;33753;52.912;-7.342;2023-04-16T11:46:49;5.43;;;1.70;;
47984;SDS011;33753;52.912;-7.342;2023-04-16T11:49:25;3.78;;;1.65;;
47984;SDS011;33753;52.912;-7.342;2023-04-16T11:51:55;5.90;;;2.00;;
47984;SDS011;33753;52.912;-7.342;2023-04-16T11:54:24;4.75;;;1.38;;
47984;SDS011;33753;52.912;-7.342;2023-04-16T11:56:52;4.18;;;2.03;;
47984;SDS011;33753;52.912;-7.342;2023-04-16T11:59:21;3.85;;;1.67;;
47984;SDS011;33753;52.912;-7.342;2023-04-16T12:01:52;3.75;;;1.60;;
47984;SDS011;33753;52.912;-7.342;2023-04-16T12:04:23;6.25;;;2.10;;
47984;SDS011;33753;52.912;-7.342;2023-04-16T12:07:04;6.93;;;1.75;;
47984;SDS011;33753;52.912;-7.342;2023-04-16T12:09:45;4.35;;;1.70;;
47984;SDS011;33753;52.912;-7.342;2023-04-16T12:12:26;5.95;;;1.75;;
47984;SDS011;33753;52.912;-7.342;2023-04-16T12:15:00;3.40;;;1.67;;
47984;SDS011;33753;52.912;-7.342;2023-04-16T12:17:38;6.85;;;1.80;;
47984;SDS011;33753;52.912;-7.342;2023-04-16T12:20:13;4.53;;;1.80;;
47984;SDS011;33753;52.912;-7.342;2023-04-16T12:22:48;4.53;;;1.80;;
47984;SDS011;33753;52.912;-7.342;2023-04-16T12:25:23;10.88;;;2.33;;
47984;SDS011;33753;52.912;-7.342;2023-04-16T12:27:57;8.50;;;1.92;;
47984;SDS011;33753;52.912;-7.342;2023-04-16T12:30:33;3.75;;;1.60;;
47984;SDS011;33753;52.912;-7.342;2023-04-16T12:33:24;6.32;;;1.92;;
47984;SDS011;33753;52.912;-7.342;2023-04-16T12:35:55;4.47;;;2.22;;
47984;SDS011;33753;52.912;-7.342;2023-04-16T12:38:30;3.15;;;1.30;;
47984;SDS011;33753;52.912;-7.342;2023-04-16T12:41:02;4.78;;;1.83;;
47984;SDS011;33753;52.912;-7.342;2023-04-16T12:43:36;5.75;;;1.75;;
47984;SDS011;33753;52.912;-7.342;2023-04-16T12:46:05;3.47;;;1.40;;
47984;SDS011;33753;52.912;-7.342;2023-04-16T12:48:41;4.25;;;1.50;;
47984;SDS011;33753;52.912;-7.342;2023-04-16T12:51:16;3.22;;;1.40;;
47984;SDS011;33753;52.912;-7.342;2023-04-16T12:53:50;4.35;;;1.80;;
47984;SDS011;33753;52.912;-7.342;2023-04-16T12:56:24;4.28;;;1.40;;
47984;SDS011;33753;52.912;-7.342;2023-04-16T12:58:58;6.50;;;1.30;;
47984;SDS011;33753;52.912;-7.342;2023-04-16T13:01:32;4.80;;;1.80;;
47984;SDS011;33753;52.912;-7.342;2023-04-16T13:04:09;3.55;;;1.35;;
47984;SDS011;33753;52.912;-7.342;2023-04-16T13:06:44;3.65;;;1.98;;
47984;SDS011;33753;52.912;-7.342;2023-04-16T13:09:17;4.15;;;1.70;;
47984;SDS011;33753;52.912;-7.342;2023-04-16T13:11:46;5.30;;;1.75;;
47984;SDS011;33753;52.912;-7.342;2023-04-16T13:14:20;3.67;;;1.70;;
47984;SDS011;33753;52.912;-7.342;2023-04-16T13:21:54;6.15;;;1.70;;
47984;SDS011;33753;52.912;-7.342;2023-04-16T13:24:28;3.60;;;1.40;;
47984;SDS011;33753;52.912;-7.342;2023-04-16T13:27:01;6.60;;;1.70;;
47984;SDS011;33753;52.912;-7.342;2023-04-16T13:29:37;2.42;;;1.25;;
47984;SDS011;33753;52.912;-7.342;2023-04-16T13:32:12;3.47;;;1.58;;
47984;SDS011;33753;52.912;-7.342;2023-04-16T13:34:47;2.83;;;1.30;;
47984;SDS011;33753;52.912;-7.342;2023-04-16T13:37:16;3.20;;;1.70;;
47984;SDS011;33753;52.912;-7.342;2023-04-16T13:39:51;3.15;;;1.42;;
47984;SDS011;33753;52.912;-7.342;2023-04-16T13:42:23;5.10;;;2.05;;
47984;SDS011;33753;52.912;-7.342;2023-04-16T13:44:59;4.10;;;1.60;;
47984;SDS011;33753;52.912;-7.342;2023-04-16T13:47:29;6.63;;;2.10;;
47984;SDS011;33753;52.912;-7.342;2023-04-16T13:50:07;5.43;;;1.65;;
47984;SDS011;33753;52.912;-7.342;2023-04-16T13:52:45;3.70;;;1.77;;
47984;SDS011;33753;52.912;-7.342;2023-04-16T13:55:20;5.65;;;1.98;;
47984;SDS011;33753;52.912;-7.342;2023-04-16T13:57:55;6.07;;;1.70;;
47984;SDS011;33753;52.912;-7.342;2023-04-16T14:00:24;4.78;;;2.40;;
47984;SDS011;33753;52.912;-7.342;2023-04-16T14:02:59;4.10;;;1.40;;
47984;SDS011;33753;52.912;-7.342;2023-04-16T14:05:37;4.40;;;1.40;;
47984;SDS011;33753;52.912;-7.342;2023-04-16T14:08:12;3.00;;;1.43;;
47984;SDS011;33753;52.912;-7.342;2023-04-16T14:10:47;5.72;;;1.73;;
47984;SDS011;33753;52.912;-7.342;2023-04-16T14:13:23;4.45;;;1.40;;
47984;SDS011;33753;52.912;-7.342;2023-04-16T14:15:58;5.18;;;1.50;;
47984;SDS011;33753;52.912;-7.342;2023-04-16T14:18:29;2.72;;;1.35;;
47984;SDS011;33753;52.912;-7.342;2023-04-16T14:21:06;3.53;;;1.50;;
47984;SDS011;33753;52.912;-7.342;2023-04-16T14:23:39;4.57;;;1.70;;
47984;SDS011;33753;52.912;-7.342;2023-04-16T14:26:12;3.90;;;1.60;;
47984;SDS011;33753;52.912;-7.342;2023-04-16T14:28:41;4.38;;;1.50;;
47984;SDS011;33753;52.912;-7.342;2023-04-16T14:31:09;3.53;;;1.50;;
47984;SDS011;33753;52.912;-7.342;2023-04-16T14:33:37;5.90;;;2.42;;
47984;SDS011;33753;52.912;-7.342;2023-04-16T14:36:08;2.97;;;1.60;;
47984;SDS011;33753;52.912;-7.342;2023-04-16T14:38:37;3.28;;;1.10;;
47984;SDS011;33753;52.912;-7.342;2023-04-16T14:41:11;5.35;;;1.60;;
47984;SDS011;33753;52.912;-7.342;2023-04-16T14:43:45;4.93;;;1.55;;
47984;SDS011;33753;52.912;-7.342;2023-04-16T14:46:13;4.10;;;1.67;;
47984;SDS011;33753;52.912;-7.342;2023-04-16T14:48:44;5.35;;;1.67;;
47984;SDS011;33753;52.912;-7.342;2023-04-16T14:51:21;4.20;;;1.60;;
47984;SDS011;33753;52.912;-7.342;2023-04-16T14:53:55;3.67;;;1.60;;
47984;SDS011;33753;52.912;-7.342;2023-04-16T14:56:29;5.65;;;2.00;;
47984;SDS011;33753;52.912;-7.342;2023-04-16T14:59:04;4.55;;;1.50;;
47984;SDS011;33753;52.912;-7.342;2023-04-16T15:01:38;4.97;;;1.88;;
47984;SDS011;33753;52.912;-7.342;2023-04-16T15:04:09;4.65;;;1.55;;
47984;SDS011;33753;52.912;-7.342;2023-04-16T15:06:47;2.40;;;1.35;;
47984;SDS011;33753;52.912;-7.342;2023-04-16T15:11:57;4.28;;;1.50;;
47984;SDS011;33753;52.912;-7.342;2023-04-16T15:14:31;4.47;;;1.40;;
47984;SDS011;33753;52.912;-7.342;2023-04-16T15:17:05;3.13;;;1.60;;
47984;SDS011;33753;52.912;-7.342;2023-04-16T15:19:38;3.42;;;1.73;;
47984;SDS011;33753;52.912;-7.342;2023-04-16T15:22:16;2.85;;;1.42;;
47984;SDS011;33753;52.912;-7.342;2023-04-16T15:24:50;2.42;;;1.15;;
47984;SDS011;33753;52.912;-7.342;2023-04-16T15:27:25;4.05;;;2.38;;
47984;SDS011;33753;52.912;-7.342;2023-04-16T15:29:59;4.05;;;1.50;;
47984;SDS011;33753;52.912;-7.342;2023-04-16T15:32:33;4.90;;;1.90;;
47984;SDS011;33753;52.912;-7.342;2023-04-16T15:35:06;4.15;;;1.70;;
47984;SDS011;33753;52.912;-7.342;2023-04-16T15:37:42;2.92;;;1.40;;
47984;SDS011;33753;52.912;-7.342;2023-04-16T15:40:11;4.10;;;1.90;;
47984;SDS011;33753;52.912;-7.342;2023-04-16T15:42:45;3.38;;;1.70;;
47984;SDS011;33753;52.912;-7.342;2023-04-16T15:45:19;4.15;;;1.85;;
47984;SDS011;33753;52.912;-7.342;2023-04-16T15:47:53;3.67;;;1.85;;
47984;SDS011;33753;52.912;-7.342;2023-04-16T15:50:26;3.28;;;1.65;;
47984;SDS011;33753;52.912;-7.342;2023-04-16T15:53:02;3.47;;;1.40;;
47984;SDS011;33753;52.912;-7.342;2023-04-16T15:55:37;5.65;;;1.95;;
47984;SDS011;33753;52.912;-7.342;2023-04-16T15:58:11;6.57;;;1.90;;
47984;SDS011;33753;52.912;-7.342;2023-04-16T16:00:47;4.32;;;1.27;;
47984;SDS011;33753;52.912;-7.342;2023-04-16T16:03:21;3.83;;;1.98;;
47984;SDS011;33753;52.912;-7.342;2023-04-16T16:05:56;2.58;;;1.33;;
47984;SDS011;33753;52.912;-7.342;2023-04-16T16:08:36;4.07;;;1.83;;
47984;SDS011;33753;52.912;-7.342;2023-04-16T16:11:07;4.72;;;1.65;;
47984;SDS011;33753;52.912;-7.342;2023-04-16T16:13:44;2.83;;;1.45;;
47984;SDS011;33753;52.912;-7.342;2023-04-16T16:16:18;4.32;;;1.35;;
47984;SDS011;33753;52.912;-7.342;2023-04-16T16:18:48;3.15;;;1.20;;
47984;SDS011;33753;52.912;-7.342;2023-04-16T16:21:22;4.50;;;1.30;;
47984;SDS011;33753;52.912;-7.342;2023-04-16T16:24:00;3.05;;;1.50;;
47984;SDS011;33753;52.912;-7.342;2023-04-16T16:26:35;3.50;;;1.20;;